Time;durP1;ratioP1;P1;durP2;ratioP2;P2;SDS_P1;SDS_P2;PMS_P1;PMS_P2;Temp;Humidity;BMP_temperature;BMP_pressure;BME280_temperature;BME280_humidity;BME280_pressure;Samples;Min_cycle;Max_cycle;Signal;HPM_P1;HPM_P2
2022/11/02 00:03:16;;;;;;;36.50;30.90;;;;;;;9.07;100.00;99696.31;420718;1281;142946;-67
2022/11/02 00:13:22;;;;;;;38.70;30.10;;;;;;;9.34;100.00;99704.09;419892;1281;144100;-67
2022/11/02 00:23:27;;;;;;;40.30;30.20;;;;;;;9.42;100.00;99712.52;419970;1275;142116;-68
2022/11/02 00:33:33;;;;;;;38.30;28.60;;;;;;;9.53;100.00;99714.37;421138;1281;143307;-67
2022/11/02 00:43:39;;;;;;;39.20;30.30;;;;;;;9.60;100.00;99723.38;419805;1275;146497;-66
2022/11/02 00:53:44;;;;;;;45.20;35.60;;;;;;;9.50;100.00;99723.96;419515;1276;147481;-67
2022/11/02 01:03:51;;;;;;;37.30;31.30;;;;;;;9.42;100.00;99724.92;420089;1281;147929;-68
2022/11/02 01:13:56;;;;;;;54.10;35.80;;;;;;;9.32;100.00;99726.52;419940;1281;143590;-68
2022/11/02 01:24:02;;;;;;;54.40;38.20;;;;;;;9.17;100.00;99729.64;419024;1281;147295;-68
2022/11/02 01:34:08;;;;;;;49.30;33.00;;;;;;;9.09;100.00;99734.66;432450;1279;146464;-66
2022/11/02 01:44:31;;;;;;;43.00;32.00;;;;;;;9.04;100.00;99735.09;434377;1275;143374;-66
2022/11/02 01:54:41;;;;;;;32.20;26.00;;;;;;;9.15;100.00;99732.40;436052;1282;198004;-66
2022/11/02 02:04:49;;;;;;;31.50;25.00;;;;;;;9.31;100.00;99737.63;436487;1280;144091;-67
2022/11/02 02:14:55;;;;;;;30.20;24.20;;;;;;;9.46;100.00;99733.81;435821;1278;144008;-67
2022/11/02 02:25:13;;;;;;;29.60;24.10;;;;;;;9.61;100.00;99737.31;436514;1284;143966;-67
2022/11/02 02:35:28;;;;;;;26.60;23.50;;;;;;;9.77;100.00;99738.54;436486;1274;147215;-67
2022/11/02 02:45:38;;;;;;;29.10;22.70;;;;;;;9.86;100.00;99734.50;436063;1275;198408;-67
2022/11/02 02:55:46;;;;;;;23.00;20.50;;;;;;;9.94;100.00;99736.46;436517;1282;144314;-67
2022/11/02 03:06:05;;;;;;;23.40;20.50;;;;;;;9.93;100.00;99754.19;435783;1281;143265;-67
2022/11/02 03:16:18;;;;;;;24.90;20.50;;;;;;;9.99;100.00;99765.90;436475;1283;144313;-67
2022/11/02 03:26:29;;;;;;;22.50;18.10;;;;;;;10.08;100.00;99772.93;436506;1282;143171;-66
2022/11/02 03:36:43;;;;;;;24.90;20.70;;;;;;;10.18;100.00;99773.73;436136;1275;143543;-67
2022/11/02 03:46:52;;;;;;;24.40;18.60;;;;;;;10.22;100.00;99770.34;436586;1282;143771;-67
2022/11/02 03:57:02;;;;;;;21.40;18.90;;;;;;;10.29;100.00;99769.60;435905;1274;144011;-67
2022/11/02 04:07:09;;;;;;;20.90;17.20;;;;;;;10.34;100.00;99776.83;436575;1275;143633;-67
2022/11/02 04:27:38;;;;;;;23.90;17.50;;;;;;;10.54;100.00;99790.34;436068;1282;200657;-67
2022/11/02 04:48:09;;;;;;;24.00;20.60;;;;;;;10.73;100.00;99791.64;435871;1282;143409;-66
2022/11/02 04:58:15;;;;;;;27.70;19.30;;;;;;;10.82;100.00;99792.14;436567;1271;142631;-67
2022/11/02 05:08:20;;;;;;;23.20;18.70;;;;;;;10.88;100.00;99794.39;436154;1279;144496;-67
2022/11/02 05:18:27;;;;;;;22.30;19.10;;;;;;;10.87;100.00;99799.73;431055;1274;201270;-67
2022/11/02 05:28:33;;;;;;;21.20;18.90;;;;;;;10.87;100.00;99808.69;436361;1275;147155;-67
2022/11/02 05:38:39;;;;;;;20.20;17.20;;;;;;;10.90;100.00;99815.27;435585;1275;146959;-68
2022/11/02 05:48:45;;;;;;;21.80;17.40;;;;;;;10.91;100.00;99826.42;436125;1268;143311;-69
2022/11/02 05:58:51;;;;;;;24.50;17.50;;;;;;;10.89;100.00;99831.45;436041;1285;144563;-68
2022/11/02 06:09:01;;;;;;;23.40;17.10;;;;;;;10.91;100.00;99839.92;435137;1275;144033;-67
2022/11/02 06:19:11;;;;;;;22.70;18.10;;;;;;;11.00;100.00;99842.94;435964;1275;144883;-69
2022/11/02 06:29:22;;;;;;;24.40;18.00;;;;;;;11.10;100.00;99844.92;436121;1277;143717;-69
2022/11/02 06:39:28;;;;;;;25.00;20.20;;;;;;;11.14;100.00;99853.61;435789;1277;211011;-69
2022/11/02 06:49:33;;;;;;;25.20;19.50;;;;;;;11.11;100.00;99860.09;435614;1282;151295;-69
2022/11/02 06:59:39;;;;;;;27.10;18.20;;;;;;;11.10;100.00;99863.48;435804;1275;143512;-69
2022/11/02 07:09:45;;;;;;;23.60;16.70;;;;;;;11.15;100.00;99866.35;436539;1283;143329;-69
2022/11/02 07:19:50;;;;;;;23.30;17.80;;;;;;;11.28;100.00;99868.17;436525;1287;144373;-68
2022/11/02 07:29:57;;;;;;;21.60;15.20;;;;;;;11.48;100.00;99867.10;435789;1280;143166;-69
2022/11/02 07:40:03;;;;;;;23.80;18.00;;;;;;;11.55;100.00;99864.00;432994;1278;143250;-68
2022/11/02 07:50:09;;;;;;;21.10;17.30;;;;;;;11.70;100.00;99867.10;436199;1275;143483;-69
2022/11/02 08:00:15;;;;;;;19.90;17.70;;;;;;;11.79;100.00;99864.58;435436;1284;145838;-69
2022/11/02 08:10:21;;;;;;;23.50;19.60;;;;;;;12.00;100.00;99864.49;436187;1284;143882;-67
2022/11/02 08:20:26;;;;;;;22.00;17.60;;;;;;;12.32;100.00;99858.54;435518;1290;143263;-67
2022/11/02 08:30:33;;;;;;;21.50;16.70;;;;;;;12.67;100.00;99850.25;431514;1283;142475;-68
2022/11/02 08:40:39;;;;;;;25.70;17.70;;;;;;;12.87;100.00;99853.60;428370;1285;144428;-68
2022/11/02 08:50:45;;;;;;;25.30;20.60;;;;;;;13.06;100.00;99863.55;435474;1282;199084;-69
2022/11/02 09:00:52;;;;;;;23.40;19.50;;;;;;;12.82;100.00;99869.02;436191;1284;142716;-68
2022/11/02 09:11:00;;;;;;;24.90;21.90;;;;;;;12.63;100.00;99863.16;436188;1284;143606;-69
2022/11/02 09:21:05;;;;;;;;;;;;;;;12.55;99.67;99853.31;435484;1283;143475;-68
2022/11/02 09:31:10;;;;;;;24.60;20.80;;;;;;;12.63;99.73;99858.80;436415;1283;128913;-68
2022/11/02 09:41:23;;;;;;;27.10;21.10;;;;;;;12.70;98.85;99853.58;436403;1281;146318;-68
2022/11/02 09:51:33;;;;;;;22.50;19.30;;;;;;;12.67;98.41;99858.83;436088;1281;209623;-68
2022/11/02 10:01:50;;;;;;;29.70;21.40;;;;;;;12.68;98.44;99864.88;436493;1280;142751;-68
2022/11/02 10:12:04;;;;;;;22.30;18.40;;;;;;;12.78;98.15;99863.88;435758;1277;143273;-68
2022/11/02 10:22:15;;;;;;;20.30;16.50;;;;;;;12.88;97.19;99864.77;435174;1282;142255;-68
2022/11/02 10:32:20;;;;;;;16.50;11.70;;;;;;;13.33;97.00;99863.28;436486;1281;142694;-67
2022/11/02 10:42:42;;;;;;;13.20;10.20;;;;;;;13.92;95.37;99860.98;435954;1282;212452;-68
2022/11/02 10:52:48;;;;;;;9.80;8.70;;;;;;;14.37;93.81;99852.02;436532;1282;144371;-68
2022/11/02 11:03:06;;;;;;;7.00;5.80;;;;;;;14.65;92.13;99850.94;435805;1281;142593;-68
2022/11/02 11:13:21;;;;;;;8.70;5.90;;;;;;;14.64;89.80;99850.35;436520;1281;141967;-68
2022/11/02 11:23:47;;;;;;;7.80;4.30;;;;;;;14.29;88.24;99839.94;435753;1282;144111;-69
2022/11/02 11:33:55;;;;;;;5.20;3.80;;;;;;;14.12;87.15;99836.27;436407;1275;143674;-70
2022/11/02 11:44:02;;;;;;;6.70;5.20;;;;;;;14.01;86.39;99824.05;436507;1280;143639;-68
2022/11/02 11:54:19;;;;;;;7.80;4.20;;;;;;;13.93;86.09;99818.00;435760;1282;145784;-69
2022/11/02 12:04:33;;;;;;;6.70;4.20;;;;;;;13.94;85.46;99809.64;436497;1280;143820;-68
2022/11/02 12:14:50;;;;;;;5.70;3.60;;;;;;;13.94;85.04;99806.14;435772;1283;142338;-69
2022/11/02 12:25:16;;;;;;;4.50;2.90;;;;;;;13.93;84.23;99809.50;436493;1283;143280;-69
2022/11/02 12:35:35;;;;;;;3.70;3.00;;;;;;;13.95;82.56;99821.53;436459;1280;143220;-69
2022/11/02 12:45:49;;;;;;;7.00;2.80;;;;;;;13.99;81.47;99821.79;436020;1282;199447;-69
2022/11/02 12:56:00;;;;;;;6.00;3.00;;;;;;;14.06;80.95;99821.40;436461;1282;146311;-71
2022/11/02 13:06:10;;;;;;;4.40;2.10;;;;;;;14.04;80.13;99817.02;435646;1281;159101;-69
2022/11/02 13:16:20;;;;;;;3.40;2.70;;;;;;;13.99;79.92;99819.84;436458;1281;142515;-70
2022/11/02 13:26:29;;;;;;;7.00;3.10;;;;;;;13.87;79.01;99816.64;436166;1280;142656;-69
2022/11/02 13:36:39;;;;;;;4.50;2.70;;;;;;;13.68;78.54;99816.81;436385;1285;196760;-69
2022/11/02 13:47:05;;;;;;;6.30;3.10;;;;;;;13.47;78.22;99816.75;436494;1283;142829;-70
2022/11/02 13:57:28;;;;;;;6.80;2.80;;;;;;;13.28;78.11;99818.39;435709;1281;143613;-68
2022/11/02 14:07:38;;;;;;;4.90;3.00;;;;;;;13.08;78.15;99814.19;436450;1290;153060;-68
2022/11/02 14:18:02;;;;;;;9.20;3.60;;;;;;;12.85;78.21;99815.06;435741;1280;142913;-69
2022/11/02 14:28:30;;;;;;;5.80;2.50;;;;;;;12.59;78.47;99818.46;436462;1286;143143;-69
2022/11/02 14:38:52;;;;;;;5.20;2.70;;;;;;;12.31;78.83;99831.05;435723;1280;142951;-68
2022/11/02 14:49:00;;;;;;;5.10;3.00;;;;;;;11.99;79.31;99837.92;436445;1284;142544;-71
2022/11/02 14:59:05;;;;;;;11.00;5.20;;;;;;;11.60;79.78;99840.23;436511;1285;142210;-74
2022/11/02 15:09:14;;;;;;;6.20;4.00;;;;;;;11.22;80.25;99846.09;430371;1283;142769;-69
2022/11/02 15:19:38;;;;;;;7.80;4.10;;;;;;;10.78;80.74;99850.67;436324;1280;143056;-71
2022/11/02 15:29:45;;;;;;;13.40;4.50;;;;;;;10.30;81.55;99861.04;435797;1289;143572;-69
2022/11/02 15:39:53;;;;;;;9.60;4.80;;;;;;;9.88;82.26;99873.35;436277;1288;142570;-69
2022/11/02 15:50:29;;;;;;;12.10;4.90;;;;;;;9.57;83.09;99883.82;436197;1279;144126;-68
2022/11/02 16:00:35;;;;;;;21.20;16.00;;;;;;;9.26;83.75;99883.61;435755;1282;210231;-68
2022/11/02 16:10:42;;;;;;;17.60;9.10;;;;;;;9.00;84.60;99892.27;436227;1280;143164;-69
2022/11/02 16:20:48;;;;;;;16.10;9.90;;;;;;;8.91;85.44;99895.04;435487;1284;142750;-69
2022/11/02 16:31:04;;;;;;;18.30;10.60;;;;;;;8.90;85.80;99895.24;436263;1276;143809;-70
2022/11/02 16:41:19;;;;;;;15.20;10.50;;;;;;;8.81;86.18;99897.98;436305;1281;143274;-70
2022/11/02 16:51:27;;;;;;;17.80;12.00;;;;;;;8.76;86.23;99900.15;435445;1288;143336;-69
2022/11/02 17:01:37;;;;;;;25.60;13.10;;;;;;;8.72;86.89;99904.58;436443;1276;142904;-70
2022/11/02 17:11:44;;;;;;;16.80;11.10;;;;;;;8.73;87.17;99913.77;435587;1281;144102;-68
2022/11/02 17:22:10;;;;;;;15.00;12.00;;;;;;;8.87;87.43;99918.97;436450;1284;143104;-70
2022/11/02 17:32:17;;;;;;;20.10;12.90;;;;;;;9.07;87.33;99926.14;436457;1283;143275;-68
2022/11/02 17:52:49;;;;;;;36.30;23.00;;;;;;;9.16;86.70;99938.62;429108;1277;142680;-68
2022/11/02 18:02:57;;;;;;;30.30;19.50;;;;;;;8.82;86.63;99939.81;421972;1275;146843;-70
2022/11/02 18:13:03;;;;;;;28.90;16.70;;;;;;;8.50;86.50;99941.92;420488;1275;145031;-70
2022/11/02 18:23:18;;;;;;;27.40;15.80;;;;;;;8.40;87.03;99948.68;422962;1281;146526;-70
2022/11/02 18:43:18;;;;;;;18.30;12.40;;;;;;;8.55;87.53;99958.96;421624;1317;601003;-64
2022/11/02 18:53:23;;;;;;;15.40;11.30;;;;;;;8.63;87.65;99963.46;432106;1287;308357;-64
2022/11/02 19:03:29;;;;;;;17.80;11.90;;;;;;;8.62;87.59;99971.70;432670;1293;141502;-64
2022/11/02 19:13:35;;;;;;;17.20;11.00;;;;;;;8.64;88.04;99974.40;432655;1284;142550;-64
2022/11/02 19:23:41;;;;;;;21.40;11.30;;;;;;;8.77;88.73;99979.36;431867;1286;142408;-64
2022/11/02 19:33:46;;;;;;;13.50;9.00;;;;;;;8.85;89.05;99978.63;432442;1297;141847;-65
2022/11/02 19:43:52;;;;;;;18.30;10.70;;;;;;;8.65;89.50;99983.07;434612;1293;144321;-65
2022/11/02 19:53:59;;;;;;;14.10;9.00;;;;;;;8.42;89.96;99996.06;433883;1280;142552;-64
2022/11/02 20:04:06;;;;;;;16.30;8.90;;;;;;;8.29;90.71;100005.53;434507;1294;142582;-63
2022/11/02 20:14:13;;;;;;;8.90;5.90;;;;;;;8.55;91.62;100004.14;434528;1287;199715;-65
2022/11/02 20:24:19;;;;;;;7.50;4.40;;;;;;;8.89;91.28;100002.48;434017;1292;142355;-63
2022/11/02 20:34:24;;;;;;;9.10;3.00;;;;;;;8.99;91.14;100014.94;434666;1294;143873;-63
2022/11/02 20:44:30;;;;;;;5.00;3.40;;;;;;;8.99;90.64;100017.55;427190;1293;192490;-64
2022/11/02 20:54:36;;;;;;;6.50;3.70;;;;;;;8.62;90.20;100026.12;417956;1286;142374;-63
2022/11/02 21:04:41;;;;;;;5.10;3.30;;;;;;;8.07;90.55;100039.02;431760;1292;142515;-64
2022/11/02 21:14:47;;;;;;;6.00;3.60;;;;;;;7.61;90.88;100046.64;433877;1280;141970;-63
2022/11/02 21:24:53;;;;;;;4.90;3.20;;;;;;;7.28;91.25;100047.74;426603;1289;141707;-62
2022/11/02 21:34:59;;;;;;;5.20;3.10;;;;;;;7.00;91.62;100056.91;432303;1295;141877;-63
2022/11/02 21:45:06;;;;;;;3.50;2.70;;;;;;;6.78;92.11;100058.34;434175;1287;146127;-63
2022/11/02 21:55:12;;;;;;;4.90;2.70;;;;;;;6.55;92.38;100059.59;434839;1288;142277;-63
2022/11/02 22:05:53;;;;;;;5.60;3.40;;;;;;;6.30;92.74;100058.12;434902;1287;143569;-63
2022/11/02 22:15:43;;;;;;;6.70;4.30;;;;;;;6.06;93.18;100055.88;434369;1280;196122;-63
2022/11/02 22:25:56;;;;;;;5.70;3.70;;;;;;;5.84;93.56;100067.64;434689;1287;142134;-63
2022/11/02 22:36:04;;;;;;;5.80;4.30;;;;;;;5.64;94.15;100068.88;433696;1285;142064;-63
2022/11/02 22:46:11;;;;;;;8.30;4.70;;;;;;;5.44;94.44;100070.95;434807;1288;142254;-62
2022/11/02 22:56:20;;;;;;;8.60;5.40;;;;;;;5.30;95.20;100081.66;434609;1287;142458;-63
2022/11/02 23:06:27;;;;;;;8.80;5.70;;;;;;;5.21;95.65;100094.48;434078;1287;197939;-63
2022/11/02 23:16:34;;;;;;;17.80;7.60;;;;;;;5.11;96.10;100099.84;434646;1288;142348;-71
2022/11/02 23:26:40;;;;;;;9.90;6.50;;;;;;;5.03;96.81;100105.64;433769;1287;141826;-70
2022/11/02 23:36:51;;;;;;;11.30;7.10;;;;;;;4.96;96.93;100111.59;426919;1287;140562;-69
2022/11/02 23:46:57;;;;;;;13.90;8.40;;;;;;;4.90;97.51;100115.41;434477;1288;142498;-64
2022/11/02 23:57:03;;;;;;;13.10;9.50;;;;;;;4.82;97.67;100122.29;433737;1290;141239;-64
